Time,TemperatureF,DewpointF,PressureIn,WindDirection,WindDirectionDegrees,WindSpeedMPH,WindSpeedGustMPH,Humidity,HourlyPrecipIn,Conditions,Clouds,dailyrainin,SolarRadiationWatts/m^2,SoftwareType,DateUTC
2013-03-13 00:02:00,25.6,22.5,29.55,NE,51,3.5,3.5,88,0.00,RA,,0.00,0.0,WeatherDisplay:10.37,2013-03-12 23:02:00,
2013-03-13 00:07:00,25.6,22.8,29.55,NE,51,3.5,3.5,89,0.00,RA,,0.00,0.0,WeatherDisplay:10.37,2013-03-12 23:07:00,
2013-03-13 00:13:00,25.6,22.8,29.55,NE,49,3.5,3.5,89,0.00,CLR,,0.00,0.0,WeatherDisplay:10.37,2013-03-12 23:13:00,
2013-03-13 00:18:00,25.5,22.7,29.55,WNW,296,4.0,4.0,89,0.00,CLR,,0.00,0.0,WeatherDisplay:10.37,2013-03-12 23:18:00,
2013-03-13 00:23:00,25.5,22.7,29.55,NW,304,4.0,4.0,89,0.00,CLR,,0.00,0.0,WeatherDisplay:10.37,2013-03-12 23:23:00,
2013-03-13 00:28:00,25.3,22.5,29.55,NW,306,4.6,4.6,89,0.00,CLR,,0.00,0.0,WeatherDisplay:10.37,2013-03-12 23:28:00,
2013-03-13 00:33:00,25.2,22.4,29.55,North,360,3.5,3.5,89,0.01,RA,,0.01,0.0,WeatherDisplay:10.37,2013-03-12 23:33:00,
2013-03-13 00:38:00,25.1,22.3,29.55,NW,311,5.0,5.0,89,0.01,RA,,0.01,0.0,WeatherDisplay:10.37,2013-03-12 23:38:00,
2013-03-13 00:44:00,25.1,22.3,29.55,NW,311,3.5,3.5,89,0.01,CLR,,0.01,0.0,WeatherDisplay:10.37,2013-03-12 23:44:00,
2013-03-13 00:49:00,25.0,22.2,29.55,NW,311,4.0,4.0,89,0.01,RA,,0.02,0.0,WeatherDisplay:10.37,2013-03-12 23:49:00,
2013-03-13 00:54:00,24.9,22.1,29.55,NW,311,4.0,4.0,89,0.01,RA,,0.02,0.0,WeatherDisplay:10.37,2013-03-12 23:54:00,
2013-03-13 00:59:00,24.9,22.1,29.55,NW,311,3.5,3.5,89,0.02,RA,,0.02,0.0,WeatherDisplay:10.37,2013-03-12 23:59:00,
2013-03-13 01:04:00,24.8,22.0,29.55,NW,309,3.5,3.5,89,0.02,RA,,0.02,0.0,WeatherDisplay:10.37,2013-03-13 00:04:00,
2013-03-13 01:09:00,24.8,22.0,29.55,WNW,302,5.8,5.8,89,0.03,RA,,0.03,0.0,WeatherDisplay:10.37,2013-03-13 00:09:00,
2013-03-13 01:14:00,24.8,22.0,29.55,WNW,302,5.0,5.0,89,0.03,RA,,0.03,0.0,WeatherDisplay:10.37,2013-03-13 00:14:00,
2013-03-13 01:20:00,24.7,21.9,29.55,WNW,292,5.0,5.0,89,0.04,RA,,0.04,0.0,WeatherDisplay:10.37,2013-03-13 00:20:00,
2013-03-13 01:25:00,24.6,21.8,29.55,WNW,290,5.0,5.0,89,0.04,RA,,0.04,0.0,WeatherDisplay:10.37,2013-03-13 00:25:00,
2013-03-13 01:30:00,24.7,21.9,29.55,WNW,289,5.8,5.8,89,0.04,CLR,,0.04,0.0,WeatherDisplay:10.37,2013-03-13 00:30:00,
2013-03-13 01:35:00,24.6,21.8,29.55,WNW,290,4.6,4.6,89,0.04,RA,,0.05,0.0,WeatherDisplay:10.37,2013-03-13 00:35:00,
2013-03-13 01:40:00,24.6,21.8,29.55,WNW,291,4.0,4.0,89,0.04,RA,,0.05,0.0,WeatherDisplay:10.37,2013-03-13 00:40:00,
2013-03-13 01:45:00,24.5,21.7,29.55,WNW,292,4.0,4.0,89,0.05,RA,,0.06,0.0,WeatherDisplay:10.37,2013-03-13 00:45:00,
2013-03-13 01:50:00,24.4,21.6,29.55,WNW,292,4.0,4.0,89,0.04,RA,,0.06,0.0,WeatherDisplay:10.37,2013-03-13 00:50:00,
2013-03-13 01:55:00,24.4,21.6,29.55,WNW,291,4.0,4.0,89,0.05,RA,,0.06,0.0,WeatherDisplay:10.37,2013-03-13 00:55:00,
2013-03-13 02:00:00,24.4,21.6,29.55,WNW,292,5.0,5.0,89,0.04,RA,,0.06,0.0,WeatherDisplay:10.37,2013-03-13 01:00:00,
2013-03-13 02:05:00,24.4,21.6,29.55,WNW,292,4.0,4.0,89,0.04,,,0.06,0.0,WeatherDisplay:10.37,2013-03-13 01:05:00,
2013-03-13 02:10:00,24.3,21.5,29.55,WNW,292,4.6,4.6,89,0.04,RA,,0.07,0.0,WeatherDisplay:10.37,2013-03-13 01:10:00,
2013-03-13 02:15:00,24.3,21.5,29.55,WNW,291,5.0,5.0,89,0.04,RA,,0.07,0.0,WeatherDisplay:10.37,2013-03-13 01:15:00,
2013-03-13 02:22:00,24.3,21.5,29.55,WNW,289,5.8,5.8,89,0.03,CLR,,0.07,0.0,WeatherDisplay:10.37,2013-03-13 01:22:00,
2013-03-13 02:27:00,24.2,21.4,29.55,WNW,289,3.5,3.5,89,0.04,RA,,0.08,0.0,WeatherDisplay:10.37,2013-03-13 01:27:00,
2013-03-13 02:33:00,24.1,21.3,29.55,WNW,289,6.0,6.0,89,0.05,RA,,0.09,0.0,WeatherDisplay:10.37,2013-03-13 01:33:00,
2013-03-13 02:39:00,24.1,21.3,29.55,WNW,290,4.6,4.6,89,0.04,RA,,0.09,0.0,WeatherDisplay:10.37,2013-03-13 01:39:00,
2013-03-13 02:44:00,23.9,21.1,29.55,WNW,290,5.0,5.0,89,0.03,,,0.09,0.0,WeatherDisplay:10.37,2013-03-13 01:44:00,
2013-03-13 02:49:00,23.9,21.1,29.55,WNW,290,5.8,5.8,89,0.04,RA,,0.09,0.0,WeatherDisplay:10.37,2013-03-13 01:49:00,
2013-03-13 02:54:00,23.9,21.1,29.55,WNW,290,6.0,6.0,89,0.03,RA,,0.09,0.0,WeatherDisplay:10.37,2013-03-13 01:54:00,
2013-03-13 02:59:00,23.8,21.0,29.55,WNW,290,5.8,5.8,89,0.03,CLR,,0.09,0.0,WeatherDisplay:10.37,2013-03-13 01:59:00,
2013-03-13 03:04:00,23.8,21.0,29.55,WNW,289,6.0,6.0,89,0.03,CLR,,0.10,0.0,WeatherDisplay:10.37,2013-03-13 02:04:00,
2013-03-13 03:09:00,23.7,20.9,29.55,WNW,287,5.8,5.8,89,0.03,RA,,0.10,0.0,WeatherDisplay:10.37,2013-03-13 02:09:00,
2013-03-13 03:14:00,23.7,20.9,29.55,WNW,288,5.0,5.0,89,0.03,RA,,0.10,0.0,WeatherDisplay:10.37,2013-03-13 02:14:00,
2013-03-13 03:19:00,23.6,20.8,29.55,WNW,288,4.6,4.6,89,0.03,CLR,,0.10,0.0,WeatherDisplay:10.37,2013-03-13 02:19:00,
2013-03-13 03:24:00,23.6,20.8,29.55,WNW,296,4.6,4.6,89,0.03,CLR,,0.10,0.0,WeatherDisplay:10.37,2013-03-13 02:24:00,
2013-03-13 03:29:00,23.5,20.7,29.55,WNW,295,4.6,4.6,89,0.02,CLR,,0.10,0.0,WeatherDisplay:10.37,2013-03-13 02:29:00,
2013-03-13 03:34:00,23.5,20.7,29.55,NW,309,5.8,5.8,89,0.02,CLR,,0.10,0.0,WeatherDisplay:10.37,2013-03-13 02:34:00,
2013-03-13 03:39:00,23.5,20.7,29.55,NW,310,5.0,5.0,89,0.02,CLR,,0.10,0.0,WeatherDisplay:10.37,2013-03-13 02:39:00,
2013-03-13 03:44:00,23.5,20.7,29.55,NW,311,5.0,5.0,89,0.02,RA,,0.11,0.0,WeatherDisplay:10.37,2013-03-13 02:44:00,
2013-03-13 03:49:00,23.5,20.7,29.55,WNW,297,6.0,6.0,89,0.02,RA,,0.11,0.0,WeatherDisplay:10.37,2013-03-13 02:49:00,
2013-03-13 03:54:00,23.5,20.7,29.55,WNW,288,5.0,5.0,89,0.02,CLR,,0.11,0.0,WeatherDisplay:10.37,2013-03-13 02:54:00,
2013-03-13 04:00:00,23.5,20.7,29.55,WNW,287,5.0,5.0,89,0.02,CLR,,0.11,0.0,WeatherDisplay:10.37,2013-03-13 03:00:00,
2013-03-13 04:05:00,23.4,20.6,29.55,WNW,288,5.0,5.0,89,0.01,CLR,,0.11,0.0,WeatherDisplay:10.37,2013-03-13 03:05:00,
2013-03-13 04:10:00,23.4,20.6,29.55,WNW,288,4.0,4.0,89,0.01,CLR,,0.11,0.0,WeatherDisplay:10.37,2013-03-13 03:10:00,
2013-03-13 04:15:00,23.4,20.6,29.55,WNW,287,5.0,5.0,89,0.01,CLR,,0.11,0.0,WeatherDisplay:10.37,2013-03-13 03:15:00,
2013-03-13 04:20:00,23.4,20.6,29.55,WNW,287,5.0,5.0,89,0.02,RA,,0.12,0.0,WeatherDisplay:10.37,2013-03-13 03:20:00,
2013-03-13 04:25:00,23.3,20.5,29.55,WNW,288,6.0,6.0,89,0.02,RA,,0.12,0.0,WeatherDisplay:10.37,2013-03-13 03:25:00,
2013-03-13 04:30:00,23.4,20.6,29.55,WNW,286,6.9,6.9,89,0.02,CLR,,0.12,0.0,WeatherDisplay:10.37,2013-03-13 03:30:00,
2013-03-13 04:35:00,23.4,20.6,29.55,WNW,286,7.0,7.0,89,0.02,CLR,,0.12,0.0,WeatherDisplay:10.37,2013-03-13 03:35:00,
2013-03-13 04:40:00,23.4,20.6,29.56,WNW,284,6.9,6.9,89,0.02,CLR,,0.12,0.0,WeatherDisplay:10.37,2013-03-13 03:40:00,
2013-03-13 04:45:00,23.3,20.5,29.55,WNW,286,5.0,5.0,89,0.01,CLR,,0.12,0.0,WeatherDisplay:10.37,2013-03-13 03:45:00,
2013-03-13 04:50:00,23.3,20.5,29.55,WNW,286,4.0,4.0,89,0.01,CLR,,0.12,0.0,WeatherDisplay:10.37,2013-03-13 03:50:00,
2013-03-13 04:55:00,23.2,20.4,29.55,WNW,300,8.1,8.1,89,0.01,CLR,,0.12,0.0,WeatherDisplay:10.37,2013-03-13 03:55:00,
2013-03-13 05:00:00,23.2,20.4,29.55,WNW,291,5.8,5.8,89,0.02,RA,,0.13,0.0,WeatherDisplay:10.37,2013-03-13 04:00:00,
2013-03-13 05:01:00,23.2,20.4,29.55,WNW,292,5.0,5.0,89,0.02,RA,,0.13,0.0,WeatherDisplay:10.37,2013-03-13 04:01:00,
2013-03-13 05:02:00,23.2,20.4,29.55,WNW,292,5.0,5.0,89,0.02,RA,,0.13,0.0,WeatherDisplay:10.37,2013-03-13 04:02:00,
2013-03-13 05:07:00,23.2,20.4,29.55,WNW,290,6.0,6.0,89,0.02,RA,,0.13,0.0,WeatherDisplay:10.37,2013-03-13 04:07:00,
2013-03-13 05:12:00,23.2,20.4,29.55,WNW,299,7.0,7.0,89,0.02,CLR,,0.13,0.0,WeatherDisplay:10.37,2013-03-13 04:12:00,
2013-03-13 05:17:00,23.2,20.4,29.56,WNW,286,9.2,9.2,89,0.02,CLR,,0.13,0.0,WeatherDisplay:10.37,2013-03-13 04:17:00,
2013-03-13 05:22:00,23.2,20.4,29.56,WNW,282,8.1,8.1,89,0.01,CLR,,0.13,0.0,WeatherDisplay:10.37,2013-03-13 04:22:00,
2013-03-13 05:27:00,23.2,20.4,29.56,WNW,294,6.9,6.9,89,0.01,CLR,,0.13,0.0,WeatherDisplay:10.37,2013-03-13 04:27:00,
2013-03-13 05:32:00,23.2,20.4,29.55,WNW,284,7.0,7.0,89,0.01,CLR,,0.13,0.0,WeatherDisplay:10.37,2013-03-13 04:32:00,
2013-03-13 05:37:00,23.1,20.3,29.55,WNW,287,7.0,7.0,89,0.02,RA,,0.13,0.0,WeatherDisplay:10.37,2013-03-13 04:37:00,
2013-03-13 05:42:00,23.1,20.3,29.55,WNW,282,6.0,6.0,89,0.02,RA,,0.13,0.0,WeatherDisplay:10.37,2013-03-13 04:42:00,
2013-03-13 05:47:00,23.1,20.3,29.56,West,279,6.9,6.9,89,0.02,,,0.13,0.0,WeatherDisplay:10.37,2013-03-13 04:47:00,
2013-03-13 05:52:00,23.1,20.3,29.56,West,271,6.9,6.9,89,0.02,CLR,,0.13,0.0,WeatherDisplay:10.37,2013-03-13 04:52:00,
2013-03-13 05:58:00,23.1,20.3,29.56,West,279,7.0,7.0,89,0.02,CLR,,0.13,0.0,WeatherDisplay:10.37,2013-03-13 04:58:00,
2013-03-13 06:01:00,23.1,20.3,29.56,West,279,8.0,8.0,89,0.01,OVC,,0.13,0.0,WeatherDisplay:10.37,2013-03-13 05:01:00,
2013-03-13 06:07:00,23.1,20.3,29.56,WNW,284,7.0,7.0,89,0.01,OVC,,0.13,0.0,WeatherDisplay:10.37,2013-03-13 05:07:00,
2013-03-13 06:12:00,23.0,20.2,29.56,West,272,9.2,9.2,89,0.01,OVC,,0.13,0.0,WeatherDisplay:10.37,2013-03-13 05:12:00,
2013-03-13 06:17:00,23.0,20.2,29.56,West,274,7.0,7.0,89,0.01,OVC,,0.13,0.0,WeatherDisplay:10.37,2013-03-13 05:17:00,
2013-03-13 06:22:00,23.0,20.2,29.56,WNW,282,8.1,8.1,89,0.01,OVC,,0.13,0.0,WeatherDisplay:10.37,2013-03-13 05:22:00,
2013-03-13 06:27:00,22.9,20.1,29.56,WNW,282,8.0,8.0,89,0.01,OVC,,0.13,0.0,WeatherDisplay:10.37,2013-03-13 05:27:00,
2013-03-13 06:32:00,22.9,20.1,29.56,WNW,285,9.2,9.2,89,0.01,OVC,,0.13,0.0,WeatherDisplay:10.37,2013-03-13 05:32:00,
2013-03-13 06:37:00,22.9,20.1,29.56,WNW,290,9.2,9.2,89,0.00,OVC,,0.13,5.0,WeatherDisplay:10.37,2013-03-13 05:37:00,
2013-03-13 06:42:00,22.9,20.1,29.56,West,272,8.1,8.1,89,0.00,OVC,,0.13,7.0,WeatherDisplay:10.37,2013-03-13 05:42:00,
2013-03-13 06:47:00,22.9,20.1,29.56,WNW,287,8.1,8.1,89,0.00,OVC,,0.13,9.0,WeatherDisplay:10.37,2013-03-13 05:47:00,
2013-03-13 06:52:00,22.9,20.1,29.56,WNW,287,8.1,8.1,89,0.00,OVC,,0.13,11.0,WeatherDisplay:10.37,2013-03-13 05:52:00,
2013-03-13 06:57:00,22.9,20.1,29.57,West,280,6.0,6.0,89,0.00,OVC,,0.13,11.0,WeatherDisplay:10.37,2013-03-13 05:57:00,
2013-03-13 07:02:00,23.0,20.2,29.57,West,281,7.0,7.0,89,0.00,OVC,,0.13,12.0,WeatherDisplay:10.37,2013-03-13 06:02:00,
2013-03-13 07:07:00,23.0,20.2,29.57,West,281,8.0,8.0,89,0.00,OVC,,0.13,14.0,WeatherDisplay:10.37,2013-03-13 06:07:00,
2013-03-13 07:12:00,23.1,20.3,29.57,West,275,6.9,6.9,89,0.00,OVC,,0.13,16.0,WeatherDisplay:10.37,2013-03-13 06:12:00,
2013-03-13 07:17:00,23.2,20.4,29.57,WNW,285,8.0,8.0,89,0.00,OVC,,0.13,18.0,WeatherDisplay:10.37,2013-03-13 06:17:00,
2013-03-13 07:23:00,23.3,20.5,29.57,West,277,7.0,7.0,89,0.01,RA,,0.14,18.0,WeatherDisplay:10.37,2013-03-13 06:23:00,
2013-03-13 07:28:00,23.3,20.5,29.57,West,280,6.9,6.9,89,0.01,RA,,0.14,21.0,WeatherDisplay:10.37,2013-03-13 06:28:00,
2013-03-13 07:33:00,23.4,20.6,29.57,West,281,6.0,6.0,89,0.01,OVC,,0.14,19.0,WeatherDisplay:10.37,2013-03-13 06:33:00,
2013-03-13 07:38:00,23.5,20.7,29.57,West,259,6.9,6.9,89,0.01,OVC,,0.14,19.0,WeatherDisplay:10.37,2013-03-13 06:38:00,
2013-03-13 07:43:00,23.5,20.7,29.58,West,279,8.1,8.1,89,0.01,OVC,,0.14,21.0,WeatherDisplay:10.37,2013-03-13 06:43:00,
2013-03-13 07:48:00,23.6,20.6,29.58,West,271,8.0,8.0,88,0.01,OVC,,0.14,25.0,WeatherDisplay:10.37,2013-03-13 06:48:00,
2013-03-13 07:53:00,23.7,20.7,29.58,West,276,6.0,6.0,88,0.01,OVC,,0.14,32.0,WeatherDisplay:10.37,2013-03-13 06:53:00,
2013-03-13 07:58:00,23.8,21.0,29.58,WNW,285,7.0,7.0,89,0.01,OVC,,0.14,28.0,WeatherDisplay:10.37,2013-03-13 06:58:00,
2013-03-13 08:03:00,23.8,20.8,29.58,West,281,6.0,6.0,88,0.01,OVC,,0.14,28.0,WeatherDisplay:10.37,2013-03-13 07:03:00,
2013-03-13 08:08:00,23.8,20.8,29.58,West,275,7.0,7.0,88,0.01,OVC,,0.14,35.0,WeatherDisplay:10.37,2013-03-13 07:08:00,
2013-03-13 08:13:00,23.9,20.9,29.59,WNW,283,8.0,8.0,88,0.01,OVC,,0.14,37.0,WeatherDisplay:10.37,2013-03-13 07:13:00,
2013-03-13 08:18:00,24.0,21.0,29.58,West,281,6.0,6.0,88,0.01,OVC,,0.14,35.0,WeatherDisplay:10.37,2013-03-13 07:18:00,
2013-03-13 08:23:00,24.1,21.1,29.59,WNW,286,9.0,9.0,88,0.00,OVC,,0.14,37.0,WeatherDisplay:10.37,2013-03-13 07:23:00,
2013-03-13 08:28:00,24.1,21.1,29.59,West,266,7.0,7.0,88,0.00,OVC,,0.14,39.0,WeatherDisplay:10.37,2013-03-13 07:28:00,
2013-03-13 08:33:00,24.2,21.2,29.59,West,270,8.0,8.0,88,0.00,OVC,,0.14,49.0,WeatherDisplay:10.37,2013-03-13 07:33:00,
2013-03-13 08:38:00,24.4,21.4,29.59,West,273,8.1,8.1,88,0.00,OVC,,0.14,53.0,WeatherDisplay:10.37,2013-03-13 07:38:00,
2013-03-13 08:43:00,24.5,21.2,29.59,West,281,5.8,5.8,87,0.00,OVC,,0.14,54.0,WeatherDisplay:10.37,2013-03-13 07:43:00,
2013-03-13 08:48:00,24.6,21.3,29.59,WNW,293,7.0,7.0,87,0.00,OVC,,0.14,51.0,WeatherDisplay:10.37,2013-03-13 07:48:00,
2013-03-13 08:53:00,24.6,21.3,29.59,West,264,8.0,8.0,87,0.00,OVC,,0.14,46.0,WeatherDisplay:10.37,2013-03-13 07:53:00,
2013-03-13 08:58:00,24.7,21.4,29.60,WNW,287,6.9,6.9,87,0.00,OVC,,0.14,46.0,WeatherDisplay:10.37,2013-03-13 07:58:00,
2013-03-13 09:03:00,24.8,21.5,29.60,West,270,8.1,8.1,87,0.00,OVC,,0.14,60.0,WeatherDisplay:10.37,2013-03-13 08:03:00,
2013-03-13 09:08:00,24.9,21.6,29.60,WNW,285,9.2,9.2,87,0.00,OVC,,0.14,69.0,WeatherDisplay:10.37,2013-03-13 08:08:00,
2013-03-13 09:14:00,25.1,21.8,29.60,West,279,8.1,8.1,87,0.00,OVC,,0.14,69.0,WeatherDisplay:10.37,2013-03-13 08:14:00,
2013-03-13 09:19:00,25.2,21.6,29.60,WNW,283,8.1,8.1,86,0.00,OVC,,0.14,65.0,WeatherDisplay:10.37,2013-03-13 08:19:00,
2013-03-13 09:24:00,25.3,21.7,29.60,WNW,286,7.0,7.0,86,0.00,OVC,,0.14,62.0,WeatherDisplay:10.37,2013-03-13 08:24:00,
2013-03-13 09:29:00,25.3,21.7,29.60,West,277,6.9,6.9,86,0.00,OVC,,0.14,63.0,WeatherDisplay:10.37,2013-03-13 08:29:00,
2013-03-13 09:34:00,25.4,21.8,29.60,West,276,8.1,8.1,86,0.00,OVC,,0.14,86.0,WeatherDisplay:10.37,2013-03-13 08:34:00,
2013-03-13 09:39:00,25.5,21.9,29.60,West,269,8.1,8.1,86,0.00,OVC,,0.14,97.0,WeatherDisplay:10.37,2013-03-13 08:39:00,
2013-03-13 09:44:00,25.7,22.1,29.60,West,281,8.1,8.1,86,0.00,OVC,,0.14,91.0,WeatherDisplay:10.37,2013-03-13 08:44:00,
2013-03-13 09:49:00,25.8,23.8,29.60,West,278,6.9,6.9,92,0.00,OVC,,0.14,98.0,WeatherDisplay:10.37,2013-03-13 08:49:00,
2013-03-13 09:55:00,25.9,22.0,29.60,NW,305,9.2,9.2,85,0.00,OVC,,0.14,97.0,WeatherDisplay:10.37,2013-03-13 08:55:00,
2013-03-13 10:00:00,26.0,21.8,29.60,WNW,291,8.1,8.1,84,0.00,OVC,,0.14,104.0,WeatherDisplay:10.37,2013-03-13 09:00:00,
2013-03-13 10:05:00,26.2,22.3,29.60,WNW,288,9.2,9.2,85,0.00,OVC,,0.14,118.0,WeatherDisplay:10.37,2013-03-13 09:05:00,
2013-03-13 10:10:00,26.4,22.2,29.60,NW,314,9.2,9.2,84,0.00,OVC,,0.14,121.0,WeatherDisplay:10.37,2013-03-13 09:10:00,
2013-03-13 10:15:00,26.5,22.3,29.61,WNW,292,9.2,9.2,84,0.00,OVC,,0.14,127.0,WeatherDisplay:10.37,2013-03-13 09:15:00,
2013-03-13 10:20:00,26.8,22.6,29.61,West,281,9.0,9.0,84,0.00,OVC,,0.14,125.0,WeatherDisplay:10.37,2013-03-13 09:20:00,
2013-03-13 10:25:00,26.7,22.2,29.61,WNW,291,9.2,9.2,83,0.00,OVC,,0.14,132.0,WeatherDisplay:10.37,2013-03-13 09:25:00,
2013-03-13 10:30:00,26.8,22.3,29.61,WNW,288,10.4,10.4,83,0.00,OVC,,0.14,148.0,WeatherDisplay:10.37,2013-03-13 09:30:00,
2013-03-13 10:38:00,26.9,22.4,29.61,West,279,10.0,10.0,83,0.00,OVC,,0.14,163.0,WeatherDisplay:10.37,2013-03-13 09:38:00,
2013-03-13 10:43:00,27.2,22.4,29.61,NW,317,8.1,8.1,82,0.00,OVC,,0.14,171.0,WeatherDisplay:10.37,2013-03-13 09:43:00,
2013-03-13 10:48:00,27.5,22.7,29.61,West,275,8.1,8.1,82,0.00,OVC,,0.14,202.0,WeatherDisplay:10.37,2013-03-13 09:48:00,
2013-03-13 10:54:00,27.7,22.9,29.61,West,270,9.2,9.2,82,0.00,OVC,,0.14,230.0,WeatherDisplay:10.37,2013-03-13 09:54:00,
2013-03-13 10:59:00,28.0,23.2,29.61,West,279,9.2,9.2,82,0.00,OVC,,0.14,236.0,WeatherDisplay:10.37,2013-03-13 09:59:00,
2013-03-13 11:04:00,28.0,23.2,29.61,West,270,9.2,9.2,82,0.00,BKN,,0.14,264.0,WeatherDisplay:10.37,2013-03-13 10:04:00,
2013-03-13 11:09:00,28.1,23.0,29.61,WNW,302,10.4,10.4,81,0.00,BKN,,0.14,315.0,WeatherDisplay:10.37,2013-03-13 10:09:00,
2013-03-13 11:14:00,28.2,23.1,29.61,West,274,10.4,10.4,81,0.00,BKN,,0.14,294.0,WeatherDisplay:10.37,2013-03-13 10:14:00,
2013-03-13 11:19:00,28.4,23.3,29.62,West,281,10.4,10.4,81,0.00,BKN,,0.14,294.0,WeatherDisplay:10.37,2013-03-13 10:19:00,
2013-03-13 11:24:00,28.6,23.5,29.62,West,267,8.1,8.1,81,0.00,BKN,,0.14,306.0,WeatherDisplay:10.37,2013-03-13 10:24:00,
2013-03-13 11:29:00,28.7,23.6,29.62,WNW,283,10.0,10.0,81,0.00,BKN,,0.14,304.0,WeatherDisplay:10.37,2013-03-13 10:29:00,
2013-03-13 11:34:00,28.7,23.3,29.62,WNW,289,8.1,8.1,80,0.00,BKN,,0.14,315.0,WeatherDisplay:10.37,2013-03-13 10:34:00,
2013-03-13 11:39:00,28.8,23.4,29.62,NW,313,8.1,8.1,80,0.00,BKN,,0.14,302.0,WeatherDisplay:10.37,2013-03-13 10:39:00,
2013-03-13 11:44:00,28.9,23.5,29.62,WNW,291,8.1,8.1,80,0.00,BKN,,0.14,313.0,WeatherDisplay:10.37,2013-03-13 10:44:00,
2013-03-13 11:49:00,29.2,23.8,29.63,West,275,9.2,9.2,80,0.00,BKN,,0.14,308.0,WeatherDisplay:10.37,2013-03-13 10:49:00,
2013-03-13 11:54:00,29.3,23.6,29.62,WNW,295,9.2,9.2,79,0.00,BKN,,0.14,341.0,WeatherDisplay:10.37,2013-03-13 10:54:00,
2013-03-13 11:59:00,29.4,23.7,29.62,WNW,282,9.2,9.2,79,0.00,BKN,,0.14,352.0,WeatherDisplay:10.37,2013-03-13 10:59:00,
2013-03-13 12:04:00,29.4,23.4,29.62,NW,304,8.1,8.1,78,0.00,BKN,,0.14,336.0,WeatherDisplay:10.37,2013-03-13 11:04:00,
2013-03-13 12:09:00,29.4,23.4,29.62,NW,317,8.1,8.1,78,0.00,BKN,,0.14,323.0,WeatherDisplay:10.37,2013-03-13 11:09:00,
2013-03-13 12:14:00,29.2,23.2,29.63,WNW,291,8.1,8.1,78,0.00,BKN,,0.14,313.0,WeatherDisplay:10.37,2013-03-13 11:14:00,
2013-03-13 12:19:00,29.3,23.3,29.63,WNW,294,9.2,9.2,78,0.00,BKN,,0.14,297.0,WeatherDisplay:10.37,2013-03-13 11:19:00,
2013-03-13 12:24:00,29.4,23.4,29.63,West,277,9.2,9.2,78,0.00,BKN,,0.14,301.0,WeatherDisplay:10.37,2013-03-13 11:24:00,
2013-03-13 12:29:00,29.5,23.5,29.63,WNW,284,9.2,9.2,78,0.00,BKN,,0.14,302.0,WeatherDisplay:10.37,2013-03-13 11:29:00,
2013-03-13 12:34:00,29.5,23.5,29.63,West,276,8.1,8.1,78,0.00,BKN,,0.14,283.0,WeatherDisplay:10.37,2013-03-13 11:34:00,
2013-03-13 12:39:00,29.4,23.1,29.63,WNW,290,9.0,9.0,77,0.00,BKN,,0.14,267.0,WeatherDisplay:10.37,2013-03-13 11:39:00,
2013-03-13 12:44:00,29.2,23.2,29.63,WNW,290,10.4,10.4,78,0.00,BKN,,0.14,258.0,WeatherDisplay:10.37,2013-03-13 11:44:00,
2013-03-13 12:49:00,29.4,23.7,29.63,WNW,282,10.4,10.4,79,0.00,BKN,,0.14,257.0,WeatherDisplay:10.37,2013-03-13 11:49:00,
2013-03-13 12:54:00,29.3,23.3,29.63,West,277,9.0,9.0,78,0.00,BKN,,0.14,258.0,WeatherDisplay:10.37,2013-03-13 11:54:00,
2013-03-13 12:59:00,29.3,23.3,29.63,WNW,301,9.2,9.2,78,0.00,BKN,,0.14,251.0,WeatherDisplay:10.37,2013-03-13 11:59:00,
2013-03-13 13:04:00,29.3,23.3,29.63,WNW,294,10.4,10.4,78,0.00,OVC,,0.14,232.0,WeatherDisplay:10.37,2013-03-13 12:04:00,
2013-03-13 13:09:00,29.2,23.2,29.63,WNW,284,11.5,11.5,78,0.00,OVC,,0.14,236.0,WeatherDisplay:10.37,2013-03-13 12:09:00,
2013-03-13 13:14:00,29.2,23.2,29.63,West,279,10.4,10.4,78,0.00,OVC,,0.14,236.0,WeatherDisplay:10.37,2013-03-13 12:14:00,
2013-03-13 13:19:00,29.3,23.6,29.63,West,267,10.4,10.4,79,0.00,OVC,,0.14,111.0,WeatherDisplay:10.37,2013-03-13 12:19:00,
2013-03-13 13:24:00,28.9,22.9,29.63,West,279,10.4,10.4,78,0.00,OVC,,0.14,116.0,WeatherDisplay:10.37,2013-03-13 12:24:00,
2013-03-13 13:29:00,29.0,23.3,29.63,West,269,10.4,10.4,79,0.00,OVC,,0.14,118.0,WeatherDisplay:10.37,2013-03-13 12:29:00,
2013-03-13 13:34:00,28.9,22.9,29.63,WNW,287,8.0,8.0,78,0.00,OVC,,0.14,121.0,WeatherDisplay:10.37,2013-03-13 12:34:00,
2013-03-13 13:39:00,28.8,22.8,29.63,WNW,292,10.4,10.4,78,0.00,OVC,,0.14,134.0,WeatherDisplay:10.37,2013-03-13 12:39:00,
2013-03-13 13:44:00,28.9,23.2,29.63,West,279,10.4,10.4,79,0.00,OVC,,0.14,144.0,WeatherDisplay:10.37,2013-03-13 12:44:00,
2013-03-13 13:49:00,28.9,22.9,29.63,WNW,289,9.2,9.2,78,0.00,OVC,,0.14,151.0,WeatherDisplay:10.37,2013-03-13 12:49:00,
2013-03-13 13:54:00,28.9,23.2,29.63,WNW,292,9.2,9.2,79,0.00,OVC,,0.14,128.0,WeatherDisplay:10.37,2013-03-13 12:54:00,
2013-03-13 13:59:00,29.0,23.6,29.63,WNW,294,8.1,8.1,80,0.01,RA,,0.15,142.0,WeatherDisplay:10.37,2013-03-13 12:59:00,
2013-03-13 14:04:00,29.0,23.3,29.63,NNW,335,8.0,8.0,79,0.01,RA,,0.15,192.0,WeatherDisplay:10.37,2013-03-13 13:04:00,
2013-03-13 14:09:00,29.1,23.4,29.63,WNW,294,9.2,9.2,79,0.01,OVC,,0.15,174.0,WeatherDisplay:10.37,2013-03-13 13:09:00,
2013-03-13 15:55:00,27.9,22.8,29.65,NNW,334,11.5,11.5,81,0.01,OVC,,0.16,42.0,WeatherDisplay:10.37,2013-03-13 14:55:00,
2013-03-13 16:00:00,27.8,22.7,29.65,WNW,296,11.5,11.5,81,0.01,OVC,,0.16,44.0,WeatherDisplay:10.37,2013-03-13 15:00:00,
2013-03-13 16:05:00,27.6,22.5,29.65,WNW,297,9.2,9.2,81,0.01,OVC,,0.16,44.0,WeatherDisplay:10.37,2013-03-13 15:05:00,
2013-03-13 16:10:00,27.5,22.7,29.65,NW,313,12.7,12.7,82,0.01,OVC,,0.16,53.0,WeatherDisplay:10.37,2013-03-13 15:10:00,
2013-03-13 16:15:00,27.4,22.6,29.65,NW,304,11.5,11.5,82,0.00,OVC,,0.16,53.0,WeatherDisplay:10.37,2013-03-13 15:15:00,
2013-03-13 16:21:00,27.3,22.2,29.66,WNW,298,11.0,11.0,81,0.00,RA,,0.16,46.0,WeatherDisplay:10.37,2013-03-13 15:21:00,
2013-03-13 16:26:00,27.2,22.1,29.66,NW,315,10.0,10.0,81,0.01,RA,,0.16,42.0,WeatherDisplay:10.37,2013-03-13 15:26:00,
2013-03-13 16:31:00,27.0,21.9,29.66,NW,317,11.0,11.0,81,0.01,RA,,0.16,32.0,WeatherDisplay:10.37,2013-03-13 15:31:00,
2013-03-13 16:36:00,26.9,21.8,29.66,NW,319,9.2,9.2,81,0.01,OVC,,0.16,23.0,WeatherDisplay:10.37,2013-03-13 15:36:00,
2013-03-13 16:41:00,26.8,21.8,29.66,NW,318,10.0,10.0,81,0.01,OVC,,0.16,19.0,WeatherDisplay:10.37,2013-03-13 15:41:00,
2013-03-13 16:47:00,26.5,21.5,29.66,NW,310,12.0,12.0,81,0.01,OVC,,0.16,18.0,WeatherDisplay:10.37,2013-03-13 15:47:00,
2013-03-13 16:52:00,26.4,21.4,29.66,NW,316,10.4,10.4,81,0.01,OVC,,0.16,18.0,WeatherDisplay:10.37,2013-03-13 15:52:00,
2013-03-13 16:58:00,26.2,21.5,29.67,NW,311,12.7,12.7,82,0.01,OVC,,0.16,16.0,WeatherDisplay:10.37,2013-03-13 15:58:00,
2013-03-13 17:03:00,26.1,21.4,29.67,NNW,333,6.9,6.9,82,0.01,OVC,,0.16,14.0,WeatherDisplay:10.37,2013-03-13 16:03:00,
2013-03-13 17:09:00,26.0,21.3,29.67,NNW,338,10.4,10.4,82,0.01,OVC,,0.16,11.0,WeatherDisplay:10.37,2013-03-13 16:09:00,
2013-03-13 17:14:00,25.9,21.2,29.67,WNW,302,10.4,10.4,82,0.01,OVC,,0.16,7.0,WeatherDisplay:10.37,2013-03-13 16:14:00,
2013-03-13 17:19:00,25.8,21.1,29.68,NNW,328,9.2,9.2,82,0.01,OVC,,0.16,0.0,WeatherDisplay:10.37,2013-03-13 16:19:00,
2013-03-13 17:24:00,25.8,21.1,29.68,NNW,344,6.9,6.9,82,0.00,OVC,,0.16,0.0,WeatherDisplay:10.37,2013-03-13 16:24:00,
2013-03-13 17:29:00,25.7,21.0,29.68,NW,304,9.2,9.2,82,0.00,OVC,,0.16,0.0,WeatherDisplay:10.37,2013-03-13 16:29:00,
2013-03-13 17:34:00,25.5,20.8,29.68,NW,319,9.2,9.2,82,0.00,OVC,,0.16,0.0,WeatherDisplay:10.37,2013-03-13 16:34:00,
2013-03-13 17:39:00,25.4,20.7,29.68,NW,308,8.1,8.1,82,0.00,OVC,,0.16,0.0,WeatherDisplay:10.37,2013-03-13 16:39:00,
2013-03-13 18:52:00,24.8,20.4,29.71,NNW,343,19.0,19.0,83,0.00,CLR,,0.16,0.0,WeatherDisplay:10.37,2013-03-13 17:52:00,
2013-03-13 18:57:00,24.8,20.4,29.71,NW,323,9.2,9.2,83,0.00,CLR,,0.16,0.0,WeatherDisplay:10.37,2013-03-13 17:57:00,
2013-03-13 19:04:00,24.7,20.6,29.71,NW,304,6.0,0.0,84,0.00,RA,,0.16,0.0,WeatherDisplay:10.37,2013-03-13 18:04:00,
2013-03-13 19:10:00,24.7,20.6,29.71,WNW,282,6.0,6.0,84,0.09,RA,,0.16,0.0,WeatherDisplay:10.37,2013-03-13 18:10:00,
2013-03-13 19:15:00,24.6,20.5,29.71,WNW,297,4.6,4.6,84,0.09,RA,,0.16,0.0,WeatherDisplay:10.37,2013-03-13 18:15:00,
2013-03-13 19:20:00,24.6,20.5,29.72,WNW,287,7.0,7.0,84,0.09,CLR,,0.16,0.0,WeatherDisplay:10.37,2013-03-13 18:20:00,
2013-03-13 19:25:00,24.6,20.5,29.72,WNW,290,5.8,5.8,84,0.09,CLR,,0.16,0.0,WeatherDisplay:10.37,2013-03-13 18:25:00,
2013-03-13 19:30:00,24.5,20.4,29.72,NW,314,6.9,6.9,84,0.09,CLR,,0.16,0.0,WeatherDisplay:10.37,2013-03-13 18:30:00,
2013-03-13 19:35:00,24.5,20.4,29.72,WNW,286,6.0,6.0,84,0.09,CLR,,0.16,0.0,WeatherDisplay:10.37,2013-03-13 18:35:00,
2013-03-13 19:40:00,24.4,20.3,29.72,West,277,5.0,5.0,84,0.09,CLR,,0.16,0.0,WeatherDisplay:10.37,2013-03-13 18:40:00,
2013-03-13 19:45:00,24.4,20.3,29.72,West,277,5.8,5.8,84,0.09,CLR,,0.16,0.0,WeatherDisplay:10.37,2013-03-13 18:45:00,
2013-03-13 19:50:00,24.4,20.3,29.72,WNW,284,9.2,9.2,84,0.09,CLR,,0.16,0.0,WeatherDisplay:10.37,2013-03-13 18:50:00,
2013-03-13 19:55:00,24.4,20.3,29.72,WNW,298,6.0,6.0,84,0.09,CLR,,0.16,0.0,WeatherDisplay:10.37,2013-03-13 18:55:00,
2013-03-13 20:00:00,24.4,20.5,29.73,WNW,292,4.6,4.6,85,0.09,CLR,,0.16,0.0,WeatherDisplay:10.37,2013-03-13 19:00:00,
2013-03-13 20:05:00,24.4,20.3,29.73,WNW,285,6.0,6.0,84,0.09,CLR,,0.16,0.0,WeatherDisplay:10.37,2013-03-13 19:05:00,
2013-03-13 20:10:00,24.3,20.2,29.73,WNW,289,6.9,6.9,84,0.00,CLR,,0.16,0.0,WeatherDisplay:10.37,2013-03-13 19:10:00,
2013-03-13 20:16:00,24.3,20.2,29.73,WNW,288,6.0,6.0,84,0.00,CLR,,0.16,0.0,WeatherDisplay:10.37,2013-03-13 19:16:00,
2013-03-13 20:21:00,24.3,20.2,29.73,WNW,286,5.8,5.8,84,0.00,CLR,,0.16,0.0,WeatherDisplay:10.37,2013-03-13 19:21:00,
2013-03-13 20:26:00,24.2,20.1,29.73,West,279,6.9,6.9,84,0.00,CLR,,0.16,0.0,WeatherDisplay:10.37,2013-03-13 19:26:00,
2013-03-13 20:31:00,24.2,20.1,29.73,WNW,297,7.0,7.0,84,0.00,CLR,,0.16,0.0,WeatherDisplay:10.37,2013-03-13 19:31:00,
2013-03-13 20:36:00,24.2,20.1,29.73,West,280,6.0,6.0,84,0.00,CLR,,0.16,0.0,WeatherDisplay:10.37,2013-03-13 19:36:00,
2013-03-13 20:41:00,24.2,20.1,29.73,NW,313,5.8,5.8,84,0.00,CLR,,0.16,0.0,WeatherDisplay:10.37,2013-03-13 19:41:00,
2013-03-13 20:47:00,24.2,20.3,29.73,WNW,296,5.0,5.0,85,0.00,CLR,,0.16,0.0,WeatherDisplay:10.37,2013-03-13 19:47:00,
2013-03-13 20:52:00,24.2,20.3,29.73,WNW,292,6.0,6.0,85,0.00,CLR,,0.16,0.0,WeatherDisplay:10.37,2013-03-13 19:52:00,
2013-03-13 20:57:00,24.2,20.3,29.73,NW,320,8.1,8.1,85,0.00,CLR,,0.16,0.0,WeatherDisplay:10.37,2013-03-13 19:57:00,
2013-03-13 21:02:00,24.2,20.3,29.74,WNW,300,5.8,5.8,85,0.00,CLR,,0.16,0.0,WeatherDisplay:10.37,2013-03-13 20:02:00,
2013-03-13 21:07:00,24.2,20.3,29.73,NW,321,6.9,6.9,85,0.00,CLR,,0.16,0.0,WeatherDisplay:10.37,2013-03-13 20:07:00,
2013-03-13 21:12:00,24.1,20.2,29.74,NNW,327,9.2,9.2,85,0.00,CLR,,0.16,0.0,WeatherDisplay:10.37,2013-03-13 20:12:00,
2013-03-13 21:17:00,24.1,20.0,29.73,NW,313,6.9,6.9,84,0.00,CLR,,0.16,0.0,WeatherDisplay:10.37,2013-03-13 20:17:00,
2013-03-13 21:22:00,24.1,20.0,29.74,NW,309,8.1,8.1,84,0.00,CLR,,0.16,0.0,WeatherDisplay:10.37,2013-03-13 20:22:00,
2013-03-13 21:27:00,24.0,19.9,29.73,NW,323,6.9,6.9,84,0.00,CLR,,0.16,0.0,WeatherDisplay:10.37,2013-03-13 20:27:00,
2013-03-13 21:32:00,24.0,19.9,29.74,NW,313,7.0,7.0,84,0.00,CLR,,0.16,0.0,WeatherDisplay:10.37,2013-03-13 20:32:00,
2013-03-13 21:37:00,24.0,19.9,29.74,West,281,7.0,7.0,84,0.00,CLR,,0.16,0.0,WeatherDisplay:10.37,2013-03-13 20:37:00,
2013-03-13 21:42:00,23.9,19.8,29.74,NW,318,9.2,9.2,84,0.00,CLR,,0.16,0.0,WeatherDisplay:10.37,2013-03-13 20:42:00,
2013-03-13 21:47:00,23.9,19.8,29.74,WNW,293,8.1,8.1,84,0.00,CLR,,0.16,0.0,WeatherDisplay:10.37,2013-03-13 20:47:00,
2013-03-13 21:52:00,23.9,19.8,29.74,NW,305,6.9,6.9,84,0.00,CLR,,0.16,0.0,WeatherDisplay:10.37,2013-03-13 20:52:00,
2013-03-13 21:57:00,23.9,19.8,29.74,NW,311,8.1,8.1,84,0.00,CLR,,0.16,0.0,WeatherDisplay:10.37,2013-03-13 20:57:00,
2013-03-13 22:02:00,23.9,19.8,29.74,NNW,336,8.1,8.1,84,0.00,CLR,,0.16,0.0,WeatherDisplay:10.37,2013-03-13 21:02:00,
2013-03-13 22:07:00,23.8,19.7,29.74,WNW,300,8.1,8.1,84,0.00,CLR,,0.16,0.0,WeatherDisplay:10.37,2013-03-13 21:07:00,
2013-03-13 22:12:00,23.8,19.7,29.75,West,281,8.0,8.0,84,0.00,CLR,,0.16,0.0,WeatherDisplay:10.37,2013-03-13 21:12:00,
2013-03-13 22:17:00,23.8,19.7,29.75,WNW,299,8.1,8.1,84,0.00,CLR,,0.16,0.0,WeatherDisplay:10.37,2013-03-13 21:17:00,
2013-03-13 22:22:00,23.8,19.7,29.75,West,280,8.1,8.1,84,0.00,CLR,,0.16,0.0,WeatherDisplay:10.37,2013-03-13 21:22:00,
2013-03-13 22:27:00,23.8,19.7,29.75,West,281,9.0,9.0,84,0.00,CLR,,0.16,0.0,WeatherDisplay:10.37,2013-03-13 21:27:00,
2013-03-13 22:32:00,23.7,19.6,29.75,WNW,298,8.1,8.1,84,0.00,CLR,,0.16,0.0,WeatherDisplay:10.37,2013-03-13 21:32:00,
2013-03-13 22:38:00,23.7,19.9,29.75,WNW,290,5.8,5.8,85,0.00,CLR,,0.16,0.0,WeatherDisplay:10.37,2013-03-13 21:38:00,
2013-03-13 23:37:00,23.4,19.6,29.75,NW,323,8.1,8.1,85,0.00,CLR,,0.16,0.0,WeatherDisplay:10.37,2013-03-13 22:37:00,
2013-03-13 23:42:00,23.3,19.2,29.75,NW,316,8.1,8.1,84,0.00,CLR,,0.16,0.0,WeatherDisplay:10.37,2013-03-13 22:42:00,
2013-03-13 23:47:00,23.3,19.2,29.76,NW,304,7.0,7.0,84,0.00,CLR,,0.16,0.0,WeatherDisplay:10.37,2013-03-13 22:47:00,
2013-03-13 23:52:00,23.3,18.9,29.76,WNW,298,7.0,7.0,83,0.00,CLR,,0.16,0.0,WeatherDisplay:10.37,2013-03-13 22:52:00,
2013-03-13 23:55:00,22.5,18.7,29.76,West,281,6.9,6.9,85,0.00,CLR,,0.00,0.0,WeatherDisplay:10.37,2013-03-13 22:55:00,
2013-03-13 23:56:00,22.5,18.7,29.76,West,281,6.9,6.9,85,0.00,CLR,,0.00,0.0,WeatherDisplay:10.37,2013-03-13 22:56:00,
2013-03-13 23:58:00,23.3,19.2,29.76,WNW,294,6.9,6.9,84,0.00,CLR,,0.16,0.0,WeatherDisplay:10.37,2013-03-13 22:58:00,